createdAt,value
2023-03-12T00:00:46.133Z,18.50
2023-03-12T00:01:46.140Z,18.00
2023-03-12T00:02:46.238Z,16.50
2023-03-12T00:03:46.176Z,17.10
2023-03-12T00:04:46.097Z,17.10
2023-03-12T00:05:46.097Z,15.60
2023-03-12T00:06:46.086Z,15.10
2023-03-12T00:07:46.113Z,12.30
2023-03-12T00:08:46.074Z,12.80
2023-03-12T00:09:46.058Z,9.40
2023-03-12T00:10:46.104Z,9.90
2023-03-12T00:11:46.056Z,10.30
2023-03-12T00:12:46.070Z,8.90
2023-03-12T00:13:46.042Z,9.60
2023-03-12T00:14:46.028Z,9.60
2023-03-12T00:15:46.066Z,8.50
2023-03-12T00:16:46.024Z,10.40
2023-03-12T00:17:46.037Z,9.40
2023-03-12T00:18:46.000Z,8.00
2023-03-12T00:19:46.000Z,9.60
2023-03-12T00:20:45.993Z,9.70
2023-03-12T00:21:45.971Z,10.20
2023-03-12T00:22:46.016Z,9.80
2023-03-12T00:23:45.973Z,10.10
2023-03-12T00:24:45.980Z,11.90
2023-03-12T00:25:46.943Z,10.90
2023-03-12T00:26:46.976Z,11.10
2023-03-12T00:27:46.011Z,12.00
2023-03-12T00:28:45.927Z,10.40
2023-03-12T00:29:45.924Z,12.70
2023-03-12T00:30:45.913Z,10.60
2023-03-12T00:31:45.987Z,12.30
2023-03-12T00:32:45.962Z,10.10
2023-03-12T00:33:45.950Z,11.10
2023-03-12T00:34:45.894Z,11.10
2023-03-12T00:35:45.911Z,12.70
2023-03-12T00:36:45.871Z,12.70
2023-03-12T00:37:45.864Z,13.10
2023-03-12T00:38:45.872Z,10.90
2023-03-12T00:39:45.842Z,12.90
2023-03-12T00:40:45.866Z,11.10
2023-03-12T00:41:45.834Z,14.30
2023-03-12T00:42:45.816Z,11.90
2023-03-12T00:43:45.845Z,15.90
2023-03-12T00:44:45.809Z,15.50
2023-03-12T00:45:45.806Z,16.80
2023-03-12T00:46:45.838Z,17.70
2023-03-12T00:47:45.784Z,16.20
2023-03-12T00:48:45.812Z,13.90
2023-03-12T00:49:45.759Z,12.70
2023-03-12T00:50:46.760Z,14.70
2023-03-12T00:51:45.754Z,13.80
2023-03-12T00:52:45.743Z,14.80
2023-03-12T00:53:45.771Z,15.40
2023-03-12T00:54:45.736Z,15.80
2023-03-12T00:55:45.724Z,15.00
2023-03-12T00:56:45.721Z,16.90
2023-03-12T00:57:45.710Z,18.00
2023-03-12T00:58:45.726Z,18.80
2023-03-12T00:59:45.713Z,16.60
2023-03-12T01:00:45.729Z,16.70
2023-03-12T01:01:45.678Z,16.80
2023-03-12T01:02:45.681Z,17.20
2023-03-12T01:03:45.729Z,15.60
2023-03-12T01:04:45.658Z,15.10
2023-03-12T01:05:45.652Z,15.00
2023-03-12T01:06:45.648Z,13.40
2023-03-12T01:07:45.640Z,12.40
2023-03-12T01:08:45.676Z,12.80
2023-03-12T01:09:45.638Z,9.60
2023-03-12T01:10:45.615Z,8.30
2023-03-12T01:11:45.610Z,10.60
2023-03-12T01:12:45.610Z,10.40
2023-03-12T01:13:45.629Z,10.60
2023-03-12T01:14:45.597Z,10.80
2023-03-12T01:15:45.595Z,14.00
2023-03-12T01:16:45.694Z,13.60
2023-03-12T01:17:45.578Z,11.00
2023-03-12T01:18:45.590Z,15.20
2023-03-12T01:19:45.550Z,12.60
2023-03-12T01:20:45.605Z,18.10
2023-03-12T01:21:45.544Z,14.40
2023-03-12T01:22:46.155Z,12.70
2023-03-12T01:23:45.554Z,11.90
2023-03-12T01:24:45.553Z,13.40
2023-03-12T01:25:45.527Z,13.20
2023-03-12T01:26:45.540Z,13.80
2023-03-12T01:27:45.490Z,13.40
2023-03-12T01:28:46.524Z,13.60
2023-03-12T01:29:45.487Z,14.30
2023-03-12T01:30:45.477Z,12.30
2023-03-12T01:31:45.502Z,13.10
2023-03-12T01:32:45.496Z,15.40
2023-03-12T01:33:45.489Z,13.30
2023-03-12T01:34:45.459Z,13.60
2023-03-12T01:35:45.571Z,14.30
2023-03-12T01:36:45.427Z,13.40
2023-03-12T01:37:45.433Z,15.70
2023-03-12T01:38:45.445Z,13.40
2023-03-12T01:39:45.416Z,14.20
2023-03-12T01:40:45.417Z,14.00
2023-03-12T01:41:45.394Z,14.40
2023-03-12T01:42:45.387Z,15.00
2023-03-12T01:43:45.426Z,14.40
2023-03-12T01:44:45.369Z,16.30
2023-03-12T01:45:45.421Z,17.60
2023-03-12T01:46:45.356Z,16.50
2023-03-12T01:47:45.347Z,20.00
2023-03-12T01:48:45.369Z,18.30
2023-03-12T01:49:45.366Z,18.30
2023-03-12T01:50:45.322Z,18.60
2023-03-12T01:51:45.321Z,24.00
2023-03-12T01:52:45.313Z,19.60
2023-03-12T01:53:45.326Z,18.00
2023-03-12T01:54:45.299Z,24.80
2023-03-12T01:55:45.290Z,19.50
2023-03-12T01:56:45.295Z,22.00
2023-03-12T01:57:45.271Z,23.10
2023-03-12T01:58:45.281Z,24.40
2023-03-12T01:59:45.258Z,16.80
2023-03-12T02:00:45.305Z,16.30
2023-03-12T02:01:45.257Z,18.30
2023-03-12T02:02:45.231Z,16.80
2023-03-12T02:03:45.274Z,16.60
2023-03-12T02:04:45.227Z,17.40
2023-03-12T02:05:45.236Z,18.50
2023-03-12T02:06:45.199Z,18.40
2023-03-12T02:07:45.198Z,20.70
2023-03-12T02:08:45.207Z,25.50
2023-03-12T02:09:45.175Z,41.50
2023-03-12T02:10:45.171Z,61.10
2023-03-12T02:11:45.171Z,39.50
2023-03-12T02:12:45.149Z,23.20
2023-03-12T02:13:45.175Z,27.20
2023-03-12T02:14:45.144Z,24.50
2023-03-12T02:15:45.133Z,31.80
2023-03-12T02:16:45.156Z,27.80
2023-03-12T02:17:45.127Z,29.90
2023-03-12T02:18:45.134Z,19.40
2023-03-12T02:19:45.113Z,16.70
2023-03-12T02:20:45.094Z,17.00
2023-03-12T02:21:45.089Z,16.70
2023-03-12T02:22:45.167Z,15.10
2023-03-12T02:23:46.097Z,16.60
2023-03-12T02:24:45.062Z,14.80
2023-03-12T02:25:45.055Z,16.00
2023-03-12T02:26:45.051Z,17.20
2023-03-12T02:27:45.045Z,16.40
2023-03-12T02:28:45.078Z,15.50
2023-03-12T02:29:45.030Z,18.00
2023-03-12T02:30:45.018Z,16.50
2023-03-12T02:31:45.044Z,15.80
2023-03-12T02:32:45.072Z,16.00
2023-03-12T02:33:45.040Z,17.50
2023-03-12T02:34:44.985Z,19.40
2023-03-12T02:35:45.011Z,25.20
2023-03-12T02:36:44.984Z,32.10
2023-03-12T02:37:44.970Z,48.40
2023-03-12T02:38:44.988Z,21.70
2023-03-12T02:39:45.043Z,18.70
2023-03-12T02:40:44.941Z,16.90
2023-03-12T02:41:44.937Z,17.40
2023-03-12T02:42:44.935Z,17.10
2023-03-12T02:43:44.957Z,16.60
2023-03-12T02:44:44.922Z,17.70
2023-03-12T02:45:44.974Z,18.00
2023-03-12T02:46:44.923Z,18.70
2023-03-12T02:47:44.899Z,16.70
2023-03-12T02:48:44.886Z,19.30
2023-03-12T02:49:45.913Z,17.20
2023-03-12T02:50:44.876Z,16.90
2023-03-12T02:51:44.885Z,19.60
2023-03-12T02:52:44.863Z,19.10
2023-03-12T02:53:44.869Z,19.60
2023-03-12T02:54:44.873Z,17.80
2023-03-12T02:55:44.835Z,17.60
2023-03-12T02:56:44.864Z,18.80
2023-03-12T02:57:44.824Z,21.40
2023-03-12T02:58:44.822Z,16.30
2023-03-12T02:59:44.839Z,16.90
2023-03-12T03:00:44.810Z,19.80
2023-03-12T03:01:44.844Z,15.70
2023-03-12T03:02:44.792Z,17.90
2023-03-12T03:03:44.804Z,18.50
2023-03-12T03:04:44.797Z,18.80
2023-03-12T03:05:44.773Z,17.10
2023-03-12T03:06:44.782Z,16.30
2023-03-12T03:07:44.769Z,16.60
2023-03-12T03:08:44.806Z,17.90
2023-03-12T03:09:44.775Z,16.50
2023-03-12T03:10:44.733Z,15.90
2023-03-12T03:11:44.756Z,15.80
2023-03-12T03:12:44.723Z,15.60
2023-03-12T03:13:44.751Z,17.00
2023-03-12T03:14:44.742Z,14.60
2023-03-12T03:15:44.791Z,16.00
2023-03-12T03:16:44.690Z,16.60
2023-03-12T03:17:44.712Z,16.40
2023-03-12T03:18:44.690Z,14.90
2023-03-12T03:19:44.693Z,13.60
2023-03-12T03:20:44.664Z,13.30
2023-03-12T03:21:44.679Z,15.90
2023-03-12T03:22:44.720Z,13.20
2023-03-12T03:23:44.655Z,13.70
2023-03-12T03:24:44.672Z,14.10
2023-03-12T03:25:44.630Z,13.30
2023-03-12T03:26:44.629Z,14.30
2023-03-12T03:27:44.611Z,14.50
2023-03-12T03:28:44.596Z,12.70
2023-03-12T03:29:44.622Z,11.90
2023-03-12T03:30:44.675Z,12.50
2023-03-12T03:31:44.583Z,12.50
2023-03-12T03:32:44.607Z,11.60
2023-03-12T03:33:44.598Z,13.20
2023-03-12T03:34:44.588Z,14.20
2023-03-12T03:35:44.569Z,13.00
2023-03-12T03:36:44.551Z,14.80
2023-03-12T03:37:44.553Z,17.40
2023-03-12T03:38:44.531Z,15.90
2023-03-12T03:39:44.558Z,14.50
2023-03-12T03:40:44.536Z,14.90
2023-03-12T03:41:44.554Z,13.80
2023-03-12T03:42:44.497Z,14.00
2023-03-12T03:43:44.490Z,13.10
2023-03-12T03:44:44.541Z,14.70
2023-03-12T03:45:44.482Z,13.90
2023-03-12T03:46:44.479Z,13.40
2023-03-12T03:47:44.472Z,12.80
2023-03-12T03:48:44.494Z,11.40
2023-03-12T03:49:44.474Z,11.70
2023-03-12T03:50:44.438Z,13.20
2023-03-12T03:51:44.440Z,15.30
2023-03-12T03:52:44.426Z,15.20
2023-03-12T03:53:44.477Z,13.50
2023-03-12T03:54:44.439Z,14.40
2023-03-12T03:55:44.409Z,15.40
2023-03-12T03:56:44.398Z,16.30
2023-03-12T03:57:44.395Z,15.80
2023-03-12T03:58:44.405Z,14.60
2023-03-12T03:59:44.404Z,15.20
2023-03-12T04:00:44.377Z,17.30
2023-03-12T04:01:44.363Z,15.30
2023-03-12T04:02:44.352Z,16.20
2023-03-12T04:03:44.369Z,14.70
2023-03-12T04:04:44.390Z,14.70
2023-03-12T04:05:44.367Z,14.70
2023-03-12T04:06:44.337Z,15.80
2023-03-12T04:07:44.318Z,14.20
2023-03-12T04:08:44.310Z,15.90
2023-03-12T04:09:44.329Z,14.40
2023-03-12T04:10:44.289Z,15.30
2023-03-12T04:11:44.295Z,14.20
2023-03-12T04:12:44.330Z,13.80
2023-03-12T04:13:44.293Z,13.90
2023-03-12T04:14:44.284Z,13.80
2023-03-12T04:15:44.276Z,13.20
2023-03-12T04:16:44.259Z,12.20
2023-03-12T04:17:44.281Z,13.70
2023-03-12T04:18:44.230Z,13.50
2023-03-12T04:19:44.314Z,14.20
2023-03-12T04:20:44.290Z,12.50
2023-03-12T04:21:44.221Z,13.50
2023-03-12T04:22:44.221Z,14.20
2023-03-12T04:23:44.199Z,13.00
2023-03-12T04:24:44.221Z,13.90
2023-03-12T04:25:44.175Z,14.20
2023-03-12T04:26:44.167Z,13.30
2023-03-12T04:27:44.199Z,12.10
2023-03-12T04:28:44.163Z,13.10
2023-03-12T04:29:44.172Z,12.70
2023-03-12T04:30:44.138Z,12.90
2023-03-12T04:31:44.314Z,14.80
2023-03-12T04:32:44.149Z,13.80
2023-03-12T04:33:44.129Z,13.00
2023-03-12T04:34:44.138Z,14.80
2023-03-12T04:35:44.103Z,15.10
2023-03-12T04:36:44.093Z,15.60
2023-03-12T04:37:44.087Z,13.80
2023-03-12T04:38:44.081Z,15.40
2023-03-12T04:39:44.096Z,12.00
2023-03-12T04:40:44.070Z,14.00
2023-03-12T04:41:44.055Z,12.60
2023-03-12T04:42:44.054Z,13.30
2023-03-12T04:43:44.055Z,13.60
2023-03-12T04:44:44.053Z,13.80
2023-03-12T04:45:44.056Z,13.20
2023-03-12T04:46:44.050Z,13.50
2023-03-12T04:47:44.022Z,14.00
2023-03-12T04:48:44.033Z,11.60
2023-03-12T04:49:44.003Z,10.70
2023-03-12T04:50:44.021Z,11.30
2023-03-12T04:51:43.986Z,10.40
2023-03-12T04:52:43.996Z,10.70
2023-03-12T04:53:44.039Z,13.20
2023-03-12T04:54:46.121Z,9.90
2023-03-12T04:55:43.982Z,11.90
2023-03-12T04:56:43.954Z,15.30
2023-03-12T04:57:43.948Z,11.80
2023-03-12T04:58:43.944Z,11.20
2023-03-12T04:59:43.942Z,12.30
2023-03-12T05:00:43.954Z,17.20
2023-03-12T05:01:43.923Z,22.00
2023-03-12T05:02:43.993Z,21.80
2023-03-12T05:03:43.900Z,21.30
2023-03-12T05:04:43.898Z,25.70
2023-03-12T05:05:43.902Z,22.80
2023-03-12T05:06:43.900Z,22.70
2023-03-12T05:07:43.866Z,25.30
2023-03-12T05:08:43.860Z,26.90
2023-03-12T05:09:43.857Z,24.50
2023-03-12T05:10:43.872Z,24.80
2023-03-12T05:11:43.848Z,23.90
2023-03-12T05:12:43.841Z,20.70
2023-03-12T05:13:43.823Z,20.60
2023-03-12T05:14:43.859Z,19.30
2023-03-12T05:15:43.851Z,19.40
2023-03-12T05:16:43.843Z,20.40
2023-03-12T05:17:43.796Z,21.90
2023-03-12T05:18:43.797Z,21.80
2023-03-12T05:19:43.783Z,18.40
2023-03-12T05:20:43.799Z,19.80
2023-03-12T05:21:43.762Z,18.30
2023-03-12T05:22:43.759Z,18.20
2023-03-12T05:23:43.821Z,18.70
2023-03-12T05:24:43.757Z,20.40
2023-03-12T05:25:43.777Z,18.00
2023-03-12T05:26:43.731Z,20.80
2023-03-12T05:27:43.742Z,19.80
2023-03-12T05:28:43.715Z,18.90
2023-03-12T05:29:43.715Z,18.50
2023-03-12T05:30:43.730Z,16.40
2023-03-12T05:31:43.798Z,17.90
2023-03-12T05:32:44.352Z,17.00
2023-03-12T05:33:43.694Z,16.90
2023-03-12T05:34:43.680Z,16.40
2023-03-12T05:35:43.736Z,16.10
2023-03-12T05:36:43.662Z,16.70
2023-03-12T05:37:43.680Z,16.30
2023-03-12T05:38:43.655Z,15.60
2023-03-12T05:39:43.645Z,18.20
2023-03-12T05:40:43.674Z,17.00
2023-03-12T05:41:43.634Z,17.30
2023-03-12T05:42:43.610Z,16.00
2023-03-12T05:43:43.613Z,15.60
2023-03-12T05:44:43.693Z,17.10
2023-03-12T05:45:43.751Z,14.90
2023-03-12T05:46:43.594Z,14.60
2023-03-12T05:47:43.583Z,15.20
2023-03-12T05:48:43.597Z,15.10
2023-03-12T05:49:43.571Z,15.30
2023-03-12T05:50:43.594Z,17.10
2023-03-12T05:51:43.551Z,16.10
2023-03-12T05:52:43.566Z,14.80
2023-03-12T05:53:43.574Z,15.10
2023-03-12T05:54:43.541Z,14.90
2023-03-12T05:55:43.588Z,17.10
2023-03-12T05:56:43.528Z,17.70
2023-03-12T05:57:43.505Z,15.90
2023-03-12T05:58:43.518Z,15.30
2023-03-12T05:59:43.531Z,15.00
2023-03-12T06:00:43.515Z,14.80
2023-03-12T06:01:43.494Z,17.20
2023-03-12T06:02:43.473Z,26.30
2023-03-12T06:03:43.567Z,28.30
2023-03-12T06:04:43.486Z,25.20
2023-03-12T06:05:43.478Z,26.70
2023-03-12T06:06:43.450Z,27.50
2023-03-12T06:07:43.441Z,25.90
2023-03-12T06:08:43.425Z,27.60
2023-03-12T06:09:43.427Z,28.80
2023-03-12T06:10:43.436Z,21.90
2023-03-12T06:11:43.413Z,20.10
2023-03-12T06:12:44.196Z,23.80
2023-03-12T06:13:43.391Z,22.50
2023-03-12T06:14:43.406Z,21.50
2023-03-12T06:15:43.401Z,18.20
2023-03-12T06:16:43.524Z,18.80
2023-03-12T06:17:43.364Z,19.80
2023-03-12T06:18:43.358Z,18.50
2023-03-12T06:19:43.362Z,20.70
2023-03-12T06:20:43.374Z,19.80
2023-03-12T06:21:43.335Z,18.10
2023-03-12T06:22:43.340Z,18.00
2023-03-12T06:23:43.323Z,24.80
2023-03-12T06:24:43.314Z,24.10
2023-03-12T06:25:43.325Z,26.00
2023-03-12T06:26:44.297Z,27.60
2023-03-12T06:27:43.344Z,27.00
2023-03-12T06:28:43.290Z,24.30
2023-03-12T06:29:43.290Z,25.50
2023-03-12T06:30:43.294Z,27.40
2023-03-12T06:31:43.280Z,28.10
2023-03-12T06:32:43.285Z,25.80
2023-03-12T06:33:43.245Z,28.00
2023-03-12T06:34:43.251Z,26.50
2023-03-12T06:35:43.289Z,24.40
2023-03-12T06:36:43.225Z,19.30
2023-03-12T06:37:43.287Z,16.80
2023-03-12T06:38:43.217Z,16.10
2023-03-12T06:39:43.208Z,17.50
2023-03-12T06:40:43.217Z,16.70
2023-03-12T06:41:43.196Z,13.90
2023-03-12T06:42:43.205Z,14.80
2023-03-12T06:43:43.193Z,12.90
2023-03-12T06:44:43.173Z,13.60
2023-03-12T06:45:43.187Z,13.40
2023-03-12T06:46:43.157Z,13.00
2023-03-12T06:47:43.158Z,16.40
2023-03-12T06:48:43.138Z,17.70
2023-03-12T06:49:43.149Z,20.10
2023-03-12T06:50:43.168Z,22.50
2023-03-12T06:51:43.130Z,22.00
2023-03-12T06:52:43.107Z,24.60
2023-03-12T06:53:43.111Z,24.00
2023-03-12T06:54:43.103Z,21.70
2023-03-12T06:55:43.120Z,21.80
2023-03-12T06:56:43.100Z,23.80
2023-03-12T06:57:43.085Z,20.70
2023-03-12T06:58:43.105Z,20.80
2023-03-12T06:59:43.080Z,24.10
2023-03-12T07:00:43.119Z,22.00
2023-03-12T07:01:43.054Z,20.90
2023-03-12T07:02:43.046Z,18.70
2023-03-12T07:03:43.053Z,18.70
2023-03-12T07:04:43.102Z,17.40
2023-03-12T07:05:43.045Z,20.40
2023-03-12T07:06:43.065Z,18.20
2023-03-12T07:07:43.050Z,15.70
2023-03-12T07:08:42.997Z,16.10
2023-03-12T07:09:43.016Z,16.30
2023-03-12T07:10:43.064Z,13.90
2023-03-12T07:11:42.977Z,15.70
2023-03-12T07:12:42.992Z,14.30
2023-03-12T07:13:43.610Z,16.90
2023-03-12T07:14:42.955Z,17.00
2023-03-12T07:15:43.037Z,16.10
2023-03-12T07:16:42.951Z,19.40
2023-03-12T07:17:42.940Z,17.80
2023-03-12T07:18:42.941Z,18.30
2023-03-12T07:19:42.923Z,19.90
2023-03-12T07:20:42.945Z,17.30
2023-03-12T07:21:42.909Z,19.20
2023-03-12T07:22:42.912Z,21.80
2023-03-12T07:23:42.895Z,17.00
2023-03-12T07:24:42.890Z,18.70
2023-03-12T07:25:42.929Z,25.70
2023-03-12T07:26:42.871Z,46.10
2023-03-12T07:27:42.868Z,46.40
2023-03-12T07:28:42.873Z,24.90
2023-03-12T07:29:42.947Z,21.10
2023-03-12T07:30:42.921Z,16.40
2023-03-12T07:31:42.935Z,17.30
2023-03-12T07:32:42.893Z,19.60
2023-03-12T07:33:42.975Z,20.80
2023-03-12T07:34:42.822Z,22.00
2023-03-12T07:35:43.022Z,21.50
2023-03-12T07:36:42.945Z,18.50
2023-03-12T07:37:42.815Z,18.70
2023-03-12T07:38:42.788Z,17.10
2023-03-12T07:39:42.788Z,13.80
2023-03-12T07:40:42.849Z,16.20
2023-03-12T07:41:43.707Z,41.10
2023-03-12T07:42:42.760Z,17.90
2023-03-12T07:43:42.808Z,44.40
2023-03-12T07:44:42.739Z,41.80
2023-03-12T07:45:42.830Z,26.20
2023-03-12T07:46:42.929Z,23.20
2023-03-12T07:47:42.903Z,19.00
2023-03-12T07:48:44.318Z,17.30
2023-03-12T07:49:43.704Z,19.10
2023-03-12T07:50:42.694Z,20.80
2023-03-12T07:51:42.697Z,18.40
2023-03-12T07:52:42.674Z,18.00
2023-03-12T07:53:42.660Z,19.70
2023-03-12T07:54:42.745Z,19.80
2023-03-12T07:55:42.745Z,17.10
2023-03-12T07:56:42.788Z,18.80
2023-03-12T07:57:42.656Z,14.20
2023-03-12T07:58:42.786Z,12.00
2023-03-12T07:59:42.699Z,12.70
2023-03-12T08:00:42.613Z,13.40
2023-03-12T08:01:44.705Z,12.80
2023-03-12T08:02:43.729Z,12.40
2023-03-12T08:03:42.722Z,13.90
2023-03-12T08:04:42.659Z,15.80
2023-03-12T08:05:42.737Z,23.20
2023-03-12T08:06:42.666Z,18.50
2023-03-12T08:07:42.563Z,30.80
2023-03-12T08:08:42.684Z,15.00
2023-03-12T08:09:42.548Z,16.90
2023-03-12T08:10:42.542Z,15.10
2023-03-12T08:11:42.734Z,12.90
2023-03-12T08:12:42.522Z,12.80
2023-03-12T08:13:42.513Z,11.90
2023-03-12T08:14:42.558Z,10.60
2023-03-12T08:15:43.113Z,11.10
2023-03-12T08:16:42.527Z,13.50
2023-03-12T08:17:42.525Z,12.10
2023-03-12T08:18:42.484Z,16.30
2023-03-12T08:19:42.558Z,10.90
2023-03-12T08:20:42.464Z,10.90
2023-03-12T08:21:42.476Z,11.50
2023-03-12T08:22:42.450Z,15.80
2023-03-12T08:23:42.435Z,15.70
2023-03-12T08:24:42.434Z,12.70
2023-03-12T08:25:42.422Z,10.60
2023-03-12T08:26:42.473Z,11.30
2023-03-12T08:27:42.412Z,12.30
2023-03-12T08:28:42.429Z,12.50
2023-03-12T08:29:42.395Z,10.00
2023-03-12T08:30:42.383Z,12.00
2023-03-12T08:31:57.394Z,9.80
2023-03-12T08:32:44.386Z,9.40
2023-03-12T08:33:42.358Z,10.00
2023-03-12T08:34:42.350Z,10.70
2023-03-12T08:35:42.396Z,12.30
2023-03-12T08:36:42.363Z,10.70
2023-03-12T08:37:42.325Z,10.60
2023-03-12T08:38:42.317Z,10.70
2023-03-12T08:39:42.358Z,9.90
2023-03-12T08:40:42.300Z,8.90
2023-03-12T08:41:42.324Z,11.10
2023-03-12T08:42:42.318Z,11.30
2023-03-12T08:43:42.280Z,10.40
2023-03-12T08:44:42.300Z,13.30
2023-03-12T08:45:42.324Z,15.70
2023-03-12T08:46:42.284Z,14.40
2023-03-12T08:47:42.259Z,13.00
2023-03-12T08:48:42.832Z,13.40
2023-03-12T08:49:42.249Z,9.40
2023-03-12T08:50:42.229Z,10.90
2023-03-12T08:51:42.287Z,12.50
2023-03-12T08:52:42.240Z,11.40
2023-03-12T08:53:42.214Z,13.10
2023-03-12T08:54:42.206Z,11.40
2023-03-12T08:55:42.227Z,11.90
2023-03-12T08:56:42.215Z,11.80
2023-03-12T08:57:42.305Z,9.50
2023-03-12T08:58:42.236Z,11.10
2023-03-12T08:59:42.176Z,11.30
2023-03-12T09:00:42.166Z,9.40
2023-03-12T09:01:43.795Z,9.30
2023-03-12T09:02:43.161Z,9.10
2023-03-12T09:03:42.716Z,10.80
2023-03-12T09:04:42.192Z,9.90
2023-03-12T09:05:42.154Z,9.90
2023-03-12T09:06:42.129Z,11.30
2023-03-12T09:07:42.112Z,8.60
2023-03-12T09:08:42.103Z,10.60
2023-03-12T09:09:42.087Z,11.60
2023-03-12T09:10:42.084Z,10.90
2023-03-12T09:11:42.100Z,11.10
2023-03-12T09:12:42.078Z,11.50
2023-03-12T09:14:02.766Z,12.90
2023-03-12T09:15:03.052Z,14.80
2023-03-12T09:15:44.045Z,14.70
2023-03-12T09:16:42.148Z,13.90
2023-03-12T09:17:42.098Z,12.20
2023-03-12T09:18:42.017Z,12.10
2023-03-12T09:19:42.011Z,13.40
2023-03-12T09:20:42.004Z,12.60
2023-03-12T09:21:42.030Z,10.80
2023-03-12T09:22:41.987Z,12.60
2023-03-12T09:23:41.981Z,10.80
2023-03-12T09:24:42.854Z,12.20
2023-03-12T09:25:41.960Z,10.40
2023-03-12T09:26:42.018Z,11.00
2023-03-12T09:27:41.949Z,9.70
2023-03-12T09:28:41.941Z,11.60
2023-03-12T09:29:57.266Z,12.10
2023-03-12T09:30:43.997Z,12.30
2023-03-12T09:31:41.944Z,10.30
2023-03-12T09:32:42.018Z,10.00
2023-03-12T09:33:41.901Z,8.80
2023-03-12T09:34:41.908Z,11.50
2023-03-12T09:35:41.889Z,11.00
2023-03-12T09:36:41.901Z,11.50
2023-03-12T09:37:41.872Z,10.10
2023-03-12T09:38:41.871Z,12.90
2023-03-12T09:39:41.920Z,11.60
2023-03-12T09:40:41.846Z,9.90
2023-03-12T09:41:41.864Z,10.90
2023-03-12T09:42:41.843Z,11.00
2023-03-12T09:43:41.826Z,11.60
2023-03-12T09:44:41.814Z,10.30
2023-03-12T09:45:41.811Z,10.70
2023-03-12T09:46:41.840Z,10.40
2023-03-12T09:47:41.783Z,11.30
2023-03-12T09:48:41.790Z,9.00
2023-03-12T09:49:41.766Z,12.40
2023-03-12T09:50:41.769Z,9.30
2023-03-12T09:51:41.793Z,10.00
2023-03-12T09:52:41.756Z,7.40
2023-03-12T09:53:41.752Z,9.60
2023-03-12T09:54:41.741Z,9.10
2023-03-12T09:55:41.735Z,10.20
2023-03-12T09:56:41.752Z,9.10
2023-03-12T09:57:41.720Z,10.80
2023-03-12T09:58:41.717Z,10.40
2023-03-12T09:59:41.699Z,8.30
2023-03-12T10:00:41.695Z,8.50
2023-03-12T10:01:41.690Z,6.90
2023-03-12T10:02:41.701Z,9.90
2023-03-12T10:03:41.704Z,10.40
2023-03-12T10:04:58.131Z,7.00
2023-03-12T10:05:43.653Z,7.50
2023-03-12T10:06:41.648Z,6.90
2023-03-12T10:07:41.674Z,7.10
2023-03-12T10:08:41.734Z,9.00
2023-03-12T10:09:41.627Z,7.50
2023-03-12T10:10:41.620Z,6.10
2023-03-12T10:11:41.613Z,7.60
2023-03-12T10:12:42.229Z,7.60
2023-03-12T10:13:41.593Z,7.70
2023-03-12T10:14:41.590Z,8.60
2023-03-12T10:15:41.620Z,8.60
2023-03-12T10:16:41.572Z,8.10
2023-03-12T10:17:41.611Z,6.90
2023-03-12T10:18:41.645Z,6.90
2023-03-12T10:19:41.558Z,7.80
2023-03-12T10:20:41.547Z,9.10
2023-03-12T10:21:41.534Z,9.10
2023-03-12T10:22:41.565Z,7.70
2023-03-12T10:23:41.525Z,6.30
2023-03-12T10:24:41.513Z,7.50
2023-03-12T10:25:41.492Z,7.90
2023-03-12T10:26:42.492Z,7.70
2023-03-12T10:27:41.513Z,8.20
2023-03-12T10:28:41.476Z,6.90
2023-03-12T10:29:44.425Z,9.20
2023-03-12T10:30:42.483Z,7.40
2023-03-12T10:31:41.457Z,7.60
2023-03-12T10:32:41.514Z,8.10
2023-03-12T10:33:41.437Z,6.60
2023-03-12T10:34:41.452Z,7.30
2023-03-12T10:35:41.477Z,8.10
2023-03-12T10:36:41.423Z,10.40
2023-03-12T10:37:41.434Z,10.10
2023-03-12T10:38:41.409Z,9.00
2023-03-12T10:39:41.414Z,9.30
2023-03-12T10:40:41.393Z,8.60
2023-03-12T10:41:41.377Z,10.60
2023-03-12T10:42:41.400Z,9.30
2023-03-12T10:43:41.362Z,8.50
2023-03-12T10:44:41.377Z,9.50
2023-03-12T10:45:41.344Z,7.40
2023-03-12T10:46:41.437Z,9.00
2023-03-12T10:47:41.355Z,9.10
2023-03-12T10:48:41.326Z,10.70
2023-03-12T10:49:41.311Z,10.30
2023-03-12T10:50:41.316Z,15.30
2023-03-12T10:51:41.315Z,10.50
2023-03-12T10:52:41.332Z,8.40
2023-03-12T10:53:41.294Z,9.10
2023-03-12T10:54:41.284Z,7.80
2023-03-12T10:55:41.279Z,8.50
2023-03-12T10:56:41.271Z,7.50
2023-03-12T10:57:41.419Z,7.60
2023-03-12T10:58:41.264Z,7.90
2023-03-12T10:59:41.249Z,9.00
2023-03-12T11:00:41.280Z,8.80
2023-03-12T11:01:41.245Z,9.80
2023-03-12T11:02:41.248Z,10.20
2023-03-12T11:03:41.214Z,10.10
2023-03-12T11:04:41.206Z,7.10
2023-03-12T11:05:41.241Z,10.20
2023-03-12T11:06:41.206Z,9.50
2023-03-12T11:07:41.216Z,13.30
2023-03-12T11:08:41.175Z,12.60
2023-03-12T11:09:41.178Z,12.90
2023-03-12T11:10:41.197Z,11.80
2023-03-12T11:11:41.153Z,11.50
2023-03-12T11:12:41.173Z,10.10
2023-03-12T11:13:41.151Z,10.90
2023-03-12T11:14:41.129Z,10.60
2023-03-12T11:15:41.190Z,9.80
2023-03-12T11:16:41.857Z,7.20
2023-03-12T11:17:41.173Z,8.40
2023-03-12T11:18:41.095Z,9.10
2023-03-12T11:19:41.087Z,9.00
2023-03-12T11:20:41.086Z,11.70
2023-03-12T11:21:41.220Z,11.00
2023-03-12T11:22:41.097Z,10.20
2023-03-12T11:23:41.071Z,12.00
2023-03-12T11:24:41.051Z,11.60
2023-03-12T11:25:41.039Z,14.50
2023-03-12T11:26:41.049Z,13.40
2023-03-12T11:27:41.037Z,13.40
2023-03-12T11:28:41.051Z,12.80
2023-03-12T11:29:41.091Z,11.60
2023-03-12T11:30:41.073Z,9.40
2023-03-12T11:31:41.033Z,12.40
2023-03-12T11:32:41.038Z,10.00
2023-03-12T11:33:41.007Z,12.50
2023-03-12T11:34:40.973Z,10.50
2023-03-12T11:35:41.019Z,12.00
2023-03-12T11:36:40.962Z,14.40
2023-03-12T11:37:40.962Z,13.20
2023-03-12T11:38:40.970Z,11.60
2023-03-12T11:39:40.940Z,11.40
2023-03-12T11:40:40.940Z,13.40
2023-03-12T11:41:40.947Z,11.90
2023-03-12T11:42:40.919Z,14.20
2023-03-12T11:43:43.919Z,11.20
2023-03-12T11:44:41.904Z,13.70
2023-03-12T11:45:40.903Z,19.20
2023-03-12T11:46:40.942Z,26.50
2023-03-12T11:47:41.989Z,17.30
2023-03-12T11:48:40.966Z,25.50
2023-03-12T11:49:40.876Z,24.80
2023-03-12T11:50:40.972Z,16.00
2023-03-12T11:51:40.849Z,14.50
2023-03-12T11:52:40.843Z,41.70
2023-03-12T11:53:40.866Z,50.60
2023-03-12T11:54:40.825Z,15.40
2023-03-12T11:55:40.825Z,12.90
2023-03-12T11:56:40.821Z,17.40
2023-03-12T11:57:40.821Z,20.10
2023-03-12T11:58:41.650Z,23.90
2023-03-12T11:59:40.775Z,20.00
2023-03-12T12:00:41.790Z,13.60
2023-03-12T12:01:40.840Z,22.70
2023-03-12T12:02:40.782Z,12.00
2023-03-12T12:03:40.810Z,11.00
2023-03-12T12:04:40.753Z,13.20
2023-03-12T12:05:40.755Z,11.80
2023-03-12T12:06:40.740Z,31.20
2023-03-12T12:07:40.740Z,18.60
2023-03-12T12:08:40.750Z,12.20
2023-03-12T12:09:40.720Z,12.30
2023-03-12T12:10:40.721Z,14.60
2023-03-12T12:11:40.699Z,14.80
2023-03-12T12:12:40.720Z,11.70
2023-03-12T12:13:40.724Z,12.50
2023-03-12T12:14:40.679Z,12.60
2023-03-12T12:15:40.715Z,11.60
2023-03-12T12:16:40.806Z,11.20
2023-03-12T12:17:40.662Z,13.40
2023-03-12T12:18:40.689Z,12.20
2023-03-12T12:19:40.706Z,11.30
2023-03-12T12:20:40.626Z,16.30
2023-03-12T12:21:40.624Z,20.90
2023-03-12T12:22:40.617Z,12.60
2023-03-12T12:23:40.633Z,9.60
2023-03-12T12:24:40.602Z,11.50
2023-03-12T12:25:40.617Z,11.10
2023-03-12T12:26:40.595Z,9.00
2023-03-12T12:27:40.603Z,9.00
2023-03-12T12:28:40.580Z,10.20
2023-03-12T12:29:42.369Z,8.40
2023-03-12T12:30:40.561Z,9.70
2023-03-12T12:31:40.659Z,10.30
2023-03-12T12:32:40.587Z,10.60
2023-03-12T12:33:40.543Z,9.70
2023-03-12T12:34:40.579Z,8.80
2023-03-12T12:35:40.594Z,9.50
2023-03-12T12:36:40.527Z,8.90
2023-03-12T12:37:40.506Z,7.80
2023-03-12T12:38:40.505Z,8.50
2023-03-12T12:39:40.526Z,8.60
2023-03-12T12:40:40.488Z,9.20
2023-03-12T12:41:40.476Z,10.00
2023-03-12T12:42:40.466Z,9.80
2023-03-12T12:43:40.468Z,8.90
2023-03-12T12:44:40.518Z,9.00
2023-03-12T12:45:40.474Z,10.50
2023-03-12T12:46:41.439Z,8.20
2023-03-12T12:47:40.467Z,8.90
2023-03-12T12:48:40.428Z,8.40
2023-03-12T12:49:40.455Z,9.00
2023-03-12T12:50:41.258Z,8.00
2023-03-12T12:51:40.405Z,8.30
2023-03-12T12:52:40.395Z,7.60
2023-03-12T12:53:40.426Z,6.80
2023-03-12T12:54:40.419Z,7.10
2023-03-12T12:55:40.381Z,8.20
2023-03-12T12:56:40.368Z,7.80